METAR Data
IDs: Format: Raw Decoded Include TAF

Data at: 0314 UTC 25 Feb 2021

GCGM 250300Z AUTO VRB17G34KT CAVOK 18/09 Q1024 RMK R09/VRB15G30KT ARP/36019G36KT 310V060